createdAt,value
2018-07-08T00:00:57.957Z,0.00
2018-07-08T00:01:57.956Z,0.00
2018-07-08T00:02:57.958Z,0.00
2018-07-08T00:03:57.957Z,0.00
2018-07-08T00:04:57.958Z,0.00
2018-07-08T00:05:57.958Z,0.00
2018-07-08T00:06:57.962Z,0.00
2018-07-08T00:07:57.959Z,0.00
2018-07-08T00:08:57.960Z,0.00
2018-07-08T00:09:57.959Z,0.00
2018-07-08T00:10:57.959Z,0.00
2018-07-08T00:11:57.960Z,0.00
2018-07-08T00:12:57.961Z,0.00
2018-07-08T00:13:57.960Z,0.00
2018-07-08T00:14:57.962Z,0.00
2018-07-08T00:15:57.962Z,0.00
2018-07-08T00:16:57.961Z,0.00
2018-07-08T00:17:57.961Z,0.00
2018-07-08T00:18:57.962Z,0.00
2018-07-08T00:19:57.963Z,0.00
2018-07-08T00:20:57.963Z,0.00
2018-07-08T00:21:57.963Z,0.00
2018-07-08T00:22:57.963Z,0.00
2018-07-08T00:23:57.963Z,0.00
2018-07-08T00:24:57.964Z,0.00
2018-07-08T00:25:57.964Z,0.00
2018-07-08T00:26:57.963Z,0.00
2018-07-08T00:27:57.963Z,0.00
2018-07-08T00:28:57.965Z,0.00
2018-07-08T00:29:57.964Z,0.00
2018-07-08T00:30:57.964Z,0.00
2018-07-08T00:31:57.965Z,0.00
2018-07-08T00:32:57.965Z,0.00
2018-07-08T00:33:57.966Z,0.00
2018-07-08T00:34:57.965Z,0.00
2018-07-08T00:35:57.966Z,0.00
2018-07-08T00:36:57.966Z,0.00
2018-07-08T00:37:57.967Z,0.00
2018-07-08T00:38:57.966Z,0.00
2018-07-08T00:39:58.024Z,0.00
2018-07-08T00:40:57.966Z,0.00
2018-07-08T00:41:57.967Z,0.00
2018-07-08T00:42:57.968Z,0.00
2018-07-08T00:43:57.966Z,0.00
2018-07-08T00:44:57.968Z,0.00
2018-07-08T00:45:57.966Z,0.00
2018-07-08T00:46:57.967Z,0.00
2018-07-08T00:47:57.967Z,0.00
2018-07-08T00:48:57.967Z,0.00
2018-07-08T00:49:57.967Z,0.00
2018-07-08T00:50:57.969Z,0.00
2018-07-08T00:51:57.968Z,0.00
2018-07-08T00:52:57.968Z,0.00
2018-07-08T00:53:57.968Z,0.00
2018-07-08T00:54:57.967Z,0.00
2018-07-08T00:55:57.968Z,0.00
2018-07-08T00:56:57.969Z,0.00
2018-07-08T00:57:57.967Z,0.00
2018-07-08T00:58:57.970Z,0.00
2018-07-08T00:59:57.968Z,0.00
2018-07-08T01:00:57.970Z,0.00
2018-07-08T01:01:57.968Z,0.00
2018-07-08T01:02:57.969Z,0.00
2018-07-08T01:03:57.970Z,0.00
2018-07-08T01:04:57.969Z,0.00
2018-07-08T01:05:57.968Z,0.00
2018-07-08T01:06:57.994Z,0.00
2018-07-08T01:07:57.969Z,0.00
2018-07-08T01:08:57.969Z,0.00
2018-07-08T01:09:57.968Z,0.00
2018-07-08T01:10:57.970Z,0.00
2018-07-08T01:11:57.969Z,0.00
2018-07-08T01:12:57.970Z,0.00
2018-07-08T01:13:57.967Z,0.00
2018-07-08T01:14:57.972Z,0.00
2018-07-08T01:15:57.969Z,0.00
2018-07-08T01:16:57.968Z,0.00
2018-07-08T01:17:57.972Z,0.00
2018-07-08T01:18:57.969Z,0.00
2018-07-08T01:19:57.969Z,0.00
2018-07-08T01:20:57.968Z,0.00
2018-07-08T01:21:57.967Z,0.00
2018-07-08T01:22:57.971Z,0.00
2018-07-08T01:23:57.968Z,0.00
2018-07-08T01:24:57.969Z,0.00
2018-07-08T01:25:57.968Z,0.00
2018-07-08T01:26:57.968Z,0.00
2018-07-08T01:27:57.968Z,0.00
2018-07-08T01:28:57.969Z,0.00
2018-07-08T01:29:57.968Z,0.00
2018-07-08T01:30:57.968Z,0.00
2018-07-08T01:31:57.968Z,0.00
2018-07-08T01:32:57.968Z,0.00
2018-07-08T01:33:57.968Z,0.00
2018-07-08T01:34:57.968Z,0.00
2018-07-08T01:35:57.967Z,0.00
2018-07-08T01:37:31.178Z,0.00
2018-07-08T01:37:57.968Z,0.00
2018-07-08T01:38:57.967Z,0.00
2018-07-08T01:39:57.970Z,0.00
2018-07-08T01:40:57.968Z,0.00
2018-07-08T01:41:57.967Z,0.00
2018-07-08T01:42:57.968Z,0.00
2018-07-08T01:43:57.967Z,0.00
2018-07-08T01:44:57.967Z,0.00
2018-07-08T01:45:57.966Z,0.00
2018-07-08T01:46:57.974Z,0.00
2018-07-08T01:47:57.967Z,0.00
2018-07-08T01:48:57.969Z,0.00
2018-07-08T01:49:57.966Z,0.00
2018-07-08T01:50:57.966Z,0.00
2018-07-08T01:51:57.966Z,0.00
2018-07-08T01:52:57.967Z,0.00
2018-07-08T01:53:57.967Z,0.00
2018-07-08T01:54:57.965Z,0.00
2018-07-08T01:55:57.966Z,0.00
2018-07-08T01:56:57.965Z,0.00
2018-07-08T01:57:57.965Z,0.00
2018-07-08T01:58:57.964Z,0.00
2018-07-08T01:59:57.968Z,0.00
2018-07-08T02:00:57.966Z,0.00
2018-07-08T02:01:57.964Z,0.00
2018-07-08T02:02:57.965Z,0.00
2018-07-08T02:03:57.965Z,0.00
2018-07-08T02:04:57.964Z,0.00
2018-07-08T02:05:57.965Z,0.00
2018-07-08T02:06:57.978Z,0.00
2018-07-08T02:07:57.964Z,0.00
2018-07-08T02:08:57.964Z,0.00
2018-07-08T02:09:57.962Z,0.00
2018-07-08T02:10:57.965Z,0.00
2018-07-08T02:11:57.963Z,0.00
2018-07-08T02:12:57.962Z,0.00
2018-07-08T02:13:57.962Z,0.00
2018-07-08T02:14:57.963Z,0.00
2018-07-08T02:15:57.961Z,0.00
2018-07-08T02:16:57.965Z,0.00
2018-07-08T02:17:57.965Z,0.00
2018-07-08T02:18:57.963Z,0.00
2018-07-08T02:19:57.963Z,0.00
2018-07-08T02:20:57.965Z,0.00
2018-07-08T02:21:57.959Z,0.00
2018-07-08T02:22:57.960Z,0.00
2018-07-08T02:23:57.960Z,0.00
2018-07-08T02:24:57.960Z,0.00
2018-07-08T02:25:57.959Z,0.00
2018-07-08T02:26:57.960Z,0.00
2018-07-08T02:27:57.960Z,0.00
2018-07-08T02:28:57.958Z,0.00
2018-07-08T02:29:57.958Z,0.00
2018-07-08T02:30:57.963Z,0.00
2018-07-08T02:31:57.958Z,0.00
2018-07-08T02:32:57.958Z,0.00
2018-07-08T02:33:57.957Z,0.00
2018-07-08T02:34:57.958Z,0.00
2018-07-08T02:35:57.957Z,0.00
2018-07-08T02:36:57.957Z,0.00
2018-07-08T02:37:57.956Z,0.00
2018-07-08T02:38:57.956Z,0.00
2018-07-08T02:39:57.957Z,0.00
2018-07-08T02:40:57.957Z,0.00
2018-07-08T02:41:57.957Z,0.00
2018-07-08T02:42:57.956Z,0.00
2018-07-08T02:43:57.957Z,0.00
2018-07-08T02:44:57.955Z,0.00
2018-07-08T02:45:57.953Z,0.00
2018-07-08T02:46:57.955Z,0.00
2018-07-08T02:47:57.956Z,0.00
2018-07-08T02:48:57.955Z,0.00
2018-07-08T02:49:57.954Z,0.00
2018-07-08T02:50:57.959Z,0.00
2018-07-08T02:51:57.960Z,0.00
2018-07-08T02:52:57.954Z,0.00
2018-07-08T02:53:57.957Z,0.00
2018-07-08T02:54:57.953Z,0.00
2018-07-08T02:55:57.953Z,0.00
2018-07-08T02:56:57.956Z,4.00
2018-07-08T02:57:57.952Z,4.00
2018-07-08T02:58:57.956Z,0.00
2018-07-08T02:59:57.954Z,0.00
2018-07-08T03:00:57.955Z,4.00
2018-07-08T03:01:57.951Z,4.00
2018-07-08T03:02:57.951Z,4.00
2018-07-08T03:03:57.952Z,4.00
2018-07-08T03:04:57.952Z,4.00
2018-07-08T03:05:57.950Z,8.00
2018-07-08T03:06:57.951Z,4.00
2018-07-08T03:07:57.955Z,8.00
2018-07-08T03:08:57.950Z,8.00
2018-07-08T03:09:57.953Z,8.00
2018-07-08T03:10:57.950Z,8.00
2018-07-08T03:11:57.949Z,12.00
2018-07-08T03:12:57.950Z,12.00
2018-07-08T03:13:57.949Z,12.00
2018-07-08T03:14:57.950Z,16.00
2018-07-08T03:15:57.948Z,16.00
2018-07-08T03:16:57.949Z,20.00
2018-07-08T03:17:57.947Z,24.00
2018-07-08T03:18:57.947Z,24.00
2018-07-08T03:19:57.948Z,28.00
2018-07-08T03:20:57.950Z,28.00
2018-07-08T03:21:57.946Z,32.00
2018-07-08T03:22:57.947Z,32.00
2018-07-08T03:23:57.945Z,36.00
2018-07-08T03:24:57.944Z,40.00
2018-07-08T03:25:57.944Z,40.00
2018-07-08T03:26:57.956Z,44.00
2018-07-08T03:27:57.944Z,44.00
2018-07-08T03:28:57.945Z,48.00
2018-07-08T03:29:57.943Z,52.00
2018-07-08T03:30:57.943Z,56.00
2018-07-08T03:31:57.946Z,56.00
2018-07-08T03:32:57.942Z,60.00
2018-07-08T03:33:57.942Z,64.00
2018-07-08T03:34:57.945Z,68.00
2018-07-08T03:35:57.941Z,72.00
2018-07-08T03:36:57.940Z,76.00
2018-07-08T03:37:57.939Z,80.00
2018-07-08T03:38:57.940Z,84.00
2018-07-08T03:39:57.938Z,88.00
2018-07-08T03:40:57.939Z,100.00
2018-07-08T03:41:57.937Z,108.00
2018-07-08T03:42:57.938Z,112.00
2018-07-08T03:43:57.938Z,124.00
2018-07-08T03:44:57.938Z,132.00
2018-07-08T03:45:57.937Z,144.00
2018-07-08T03:46:57.936Z,152.00
2018-07-08T03:47:57.936Z,160.00
2018-07-08T03:48:57.936Z,172.00
2018-07-08T03:49:57.935Z,180.00
2018-07-08T03:50:57.935Z,184.00
2018-07-08T03:51:57.934Z,184.00
2018-07-08T03:52:57.933Z,188.00
2018-07-08T03:53:57.933Z,188.00
2018-07-08T03:54:57.932Z,192.00
2018-07-08T03:55:57.932Z,200.00
2018-07-08T03:56:57.932Z,200.00
2018-07-08T03:57:57.931Z,208.00
2018-07-08T03:58:57.930Z,216.00
2018-07-08T03:59:57.931Z,224.00
2018-07-08T04:00:57.930Z,232.00
2018-07-08T04:01:57.929Z,244.00
2018-07-08T04:02:57.933Z,252.00
2018-07-08T04:03:57.929Z,264.00
2018-07-08T04:04:57.930Z,284.00
2018-07-08T04:05:57.928Z,308.00
2018-07-08T04:06:57.928Z,320.00
2018-07-08T04:07:57.927Z,336.00
2018-07-08T04:08:57.930Z,356.00
2018-07-08T04:09:57.926Z,368.00
2018-07-08T04:10:57.930Z,388.00
2018-07-08T04:11:57.927Z,404.00
2018-07-08T04:12:57.929Z,416.00
2018-07-08T04:13:57.925Z,428.00
2018-07-08T04:14:57.924Z,432.00
2018-07-08T04:15:57.924Z,428.00
2018-07-08T04:16:57.924Z,428.00
2018-07-08T04:17:57.924Z,448.00
2018-07-08T04:18:57.924Z,480.00
2018-07-08T04:19:57.923Z,504.00
2018-07-08T04:20:57.924Z,524.00
2018-07-08T04:21:57.926Z,524.00
2018-07-08T04:22:57.922Z,528.00
2018-07-08T04:23:57.923Z,528.00
2018-07-08T04:24:57.923Z,528.00
2018-07-08T04:25:57.923Z,532.00
2018-07-08T04:26:57.921Z,540.00
2018-07-08T04:27:57.921Z,536.00
2018-07-08T04:28:57.923Z,540.00
2018-07-08T04:29:57.920Z,564.00
2018-07-08T04:30:57.920Z,608.00
2018-07-08T04:31:57.920Z,652.00
2018-07-08T04:32:57.921Z,700.00
2018-07-08T04:33:57.920Z,760.00
2018-07-08T04:34:57.919Z,784.00
2018-07-08T04:35:57.920Z,776.00
2018-07-08T04:36:57.920Z,784.00
2018-07-08T04:37:57.920Z,808.00
2018-07-08T04:38:57.919Z,860.00
2018-07-08T04:39:57.918Z,908.00
2018-07-08T04:40:57.917Z,948.00
2018-07-08T04:41:57.917Z,964.00
2018-07-08T04:42:57.919Z,956.00
2018-07-08T04:43:57.916Z,960.00
2018-07-08T04:44:57.916Z,964.00
2018-07-08T04:45:57.916Z,960.00
2018-07-08T04:46:57.916Z,936.00
2018-07-08T04:47:57.917Z,852.00
2018-07-08T04:48:57.916Z,832.00
2018-07-08T04:49:57.915Z,820.00
2018-07-08T04:50:57.916Z,804.00
2018-07-08T04:51:57.916Z,796.00
2018-07-08T04:52:57.918Z,812.00
2018-07-08T04:53:57.917Z,816.00
2018-07-08T04:54:57.914Z,804.00
2018-07-08T04:55:57.915Z,836.00
2018-07-08T04:56:57.915Z,848.00
2018-07-08T04:57:57.914Z,836.00
2018-07-08T04:58:57.914Z,836.00
2018-07-08T04:59:57.915Z,852.00
2018-07-08T05:00:57.922Z,860.00
2018-07-08T05:01:57.913Z,896.00
2018-07-08T05:02:57.914Z,924.00
2018-07-08T05:03:57.913Z,960.00
2018-07-08T05:04:57.913Z,972.00
2018-07-08T05:05:57.912Z,1000.00
2018-07-08T05:06:57.912Z,1040.00
2018-07-08T05:07:57.912Z,1076.00
2018-07-08T05:08:57.913Z,1076.00
2018-07-08T05:09:57.912Z,1060.00
2018-07-08T05:10:57.912Z,1048.00
2018-07-08T05:11:57.912Z,1064.00
2018-07-08T05:12:57.912Z,1120.00
2018-07-08T05:13:57.911Z,1168.00
2018-07-08T05:14:57.912Z,1292.00
2018-07-08T05:15:57.912Z,1348.00
2018-07-08T05:16:57.911Z,1392.00
2018-07-08T05:17:57.910Z,1368.00
2018-07-08T05:18:57.911Z,1360.00
2018-07-08T05:19:57.911Z,1300.00
2018-07-08T05:20:57.911Z,1240.00
2018-07-08T05:21:57.911Z,1160.00
2018-07-08T05:22:57.911Z,1156.00
2018-07-08T05:23:57.911Z,1148.00
2018-07-08T05:24:57.911Z,1184.00
2018-07-08T05:25:57.910Z,1216.00
2018-07-08T05:26:57.911Z,1232.00
2018-07-08T05:27:57.911Z,1204.00
2018-07-08T05:28:57.911Z,1180.00
2018-07-08T05:29:57.912Z,1144.00
2018-07-08T05:30:57.911Z,1116.00
2018-07-08T05:31:57.911Z,1104.00
2018-07-08T05:32:57.912Z,1068.00
2018-07-08T05:33:57.914Z,1028.00
2018-07-08T05:34:57.912Z,1040.00
2018-07-08T05:35:57.911Z,1136.00
2018-07-08T05:36:57.912Z,1276.00
2018-07-08T05:37:57.912Z,1448.00
2018-07-08T05:38:57.912Z,1660.00
2018-07-08T05:39:57.912Z,1772.00
2018-07-08T05:40:57.913Z,1808.00
2018-07-08T05:41:57.913Z,1864.00
2018-07-08T05:42:57.913Z,1904.00
2018-07-08T05:43:57.914Z,1844.00
2018-07-08T05:44:57.915Z,1872.00
2018-07-08T05:45:57.913Z,1944.00
2018-07-08T05:46:57.913Z,1956.00
2018-07-08T05:47:57.916Z,1932.00
2018-07-08T05:48:57.914Z,1808.00
2018-07-08T05:49:57.914Z,1716.00
2018-07-08T05:50:57.914Z,1784.00
2018-07-08T05:51:57.916Z,1868.00
2018-07-08T05:52:57.916Z,2080.00
2018-07-08T05:53:57.915Z,2220.00
2018-07-08T05:54:57.916Z,2020.00
2018-07-08T05:55:57.916Z,1824.00
2018-07-08T05:56:57.921Z,1836.00
2018-07-08T05:57:57.918Z,1800.00
2018-07-08T05:58:57.919Z,1692.00
2018-07-08T05:59:57.919Z,1788.00
2018-07-08T06:00:57.919Z,1904.00
2018-07-08T06:01:57.919Z,1932.00
2018-07-08T06:02:57.920Z,2008.00
2018-07-08T06:03:57.921Z,1920.00
2018-07-08T06:04:57.921Z,1824.00
2018-07-08T06:05:57.921Z,1716.00
2018-07-08T06:06:57.921Z,1708.00
2018-07-08T06:07:57.922Z,1688.00
2018-07-08T06:08:57.923Z,1720.00
2018-07-08T06:09:57.925Z,1740.00
2018-07-08T06:10:57.925Z,1660.00
2018-07-08T06:11:57.926Z,1588.00
2018-07-08T06:12:57.928Z,1488.00
2018-07-08T06:13:57.928Z,1568.00
2018-07-08T06:14:57.926Z,1792.00
2018-07-08T06:15:57.930Z,1948.00
2018-07-08T06:16:57.963Z,2232.00
2018-07-08T06:17:57.926Z,2324.00
2018-07-08T06:18:57.928Z,2384.00
2018-07-08T06:19:57.929Z,2432.00
2018-07-08T06:20:57.929Z,2532.00
2018-07-08T06:21:57.930Z,2592.00
2018-07-08T06:22:57.931Z,2464.00
2018-07-08T06:23:57.932Z,2360.00
2018-07-08T06:24:57.935Z,2328.00
2018-07-08T06:25:57.988Z,2288.00
2018-07-08T06:26:57.933Z,2256.00
2018-07-08T06:27:57.934Z,2240.00
2018-07-08T06:28:57.935Z,2256.00
2018-07-08T06:29:57.934Z,2256.00
2018-07-08T06:30:57.935Z,2276.00
2018-07-08T06:31:57.937Z,2296.00
2018-07-08T06:32:57.937Z,2376.00
2018-07-08T06:33:57.939Z,2508.00
2018-07-08T06:34:57.938Z,2644.00
2018-07-08T06:35:57.942Z,2836.00
2018-07-08T06:36:57.942Z,2888.00
2018-07-08T06:37:57.939Z,2960.00
2018-07-08T06:38:57.942Z,2996.00
2018-07-08T06:39:57.944Z,3136.00
2018-07-08T06:40:57.945Z,3336.00
2018-07-08T06:41:57.944Z,3872.00
2018-07-08T06:42:57.946Z,3640.00
2018-07-08T06:43:57.948Z,3608.00
2018-07-08T06:44:57.947Z,3496.00
2018-07-08T06:45:57.950Z,3532.00
2018-07-08T06:46:57.950Z,3580.00
2018-07-08T06:47:57.952Z,3584.00
2018-07-08T06:48:57.953Z,4012.00
2018-07-08T06:49:57.953Z,3952.00
2018-07-08T06:50:57.955Z,4140.00
2018-07-08T06:51:58.012Z,4084.00
2018-07-08T06:52:57.958Z,4348.00
2018-07-08T06:53:57.959Z,3820.00
2018-07-08T06:54:57.960Z,3680.00
2018-07-08T06:55:57.961Z,3648.00
2018-07-08T06:56:57.963Z,3500.00
2018-07-08T06:57:58.083Z,3420.00
2018-07-08T06:58:57.965Z,3428.00
2018-07-08T06:59:57.966Z,3376.00
2018-07-08T07:00:57.969Z,3324.00
2018-07-08T07:01:57.969Z,3424.00
2018-07-08T07:02:57.974Z,3440.00
2018-07-08T07:03:57.972Z,3532.00
2018-07-08T07:04:57.976Z,3784.00
2018-07-08T07:05:57.975Z,4288.00
2018-07-08T07:06:57.977Z,4808.00
2018-07-08T07:07:57.983Z,5308.00
2018-07-08T07:08:57.984Z,5616.00
2018-07-08T07:09:57.981Z,6204.00
2018-07-08T07:10:57.983Z,5872.00
2018-07-08T07:11:57.985Z,5736.00
2018-07-08T07:12:57.987Z,6400.00
2018-07-08T07:13:57.988Z,6752.00
2018-07-08T07:14:57.990Z,6040.00
2018-07-08T07:15:57.993Z,6080.00
2018-07-08T07:16:57.995Z,5980.00
2018-07-08T07:17:57.997Z,5776.00
2018-07-08T07:18:57.999Z,5556.00
2018-07-08T07:19:58.001Z,5652.00
2018-07-08T07:20:58.003Z,6672.00
2018-07-08T07:21:58.004Z,6248.00
2018-07-08T07:22:58.026Z,5988.00
2018-07-08T07:23:58.009Z,5496.00
2018-07-08T07:24:58.011Z,5252.00
2018-07-08T07:25:58.012Z,5892.00
2018-07-08T07:26:58.015Z,6240.00
2018-07-08T07:27:58.018Z,5064.00
2018-07-08T07:28:58.020Z,4560.00
2018-07-08T07:29:58.022Z,4336.00
2018-07-08T07:30:58.026Z,4368.00
2018-07-08T07:31:58.030Z,4524.00
2018-07-08T07:32:58.031Z,4716.00
2018-07-08T07:33:58.032Z,7340.00
2018-07-08T07:34:58.033Z,6336.00
2018-07-08T07:35:58.037Z,8384.00
2018-07-08T07:36:58.068Z,5772.00
2018-07-08T07:37:58.071Z,26528.00
2018-07-08T07:38:58.043Z,6300.00
2018-07-08T07:39:58.048Z,4764.00
2018-07-08T07:40:58.055Z,4252.00
2018-07-08T07:41:58.169Z,3928.00
2018-07-08T07:42:58.054Z,3744.00
2018-07-08T07:43:58.059Z,3712.00
2018-07-08T07:44:58.064Z,4272.00
2018-07-08T07:45:58.065Z,4892.00
2018-07-08T07:46:58.065Z,5448.00
2018-07-08T07:47:58.069Z,5408.00
2018-07-08T07:48:58.073Z,5444.00
2018-07-08T07:49:58.075Z,6280.00
2018-07-08T07:50:58.077Z,5552.00
2018-07-08T07:51:58.079Z,5148.00
2018-07-08T07:52:58.084Z,4816.00
2018-07-08T07:53:58.085Z,5528.00
2018-07-08T07:54:58.088Z,12664.00
2018-07-08T07:55:58.091Z,8204.00
2018-07-08T07:56:58.096Z,5400.00
2018-07-08T07:57:58.095Z,4928.00
2018-07-08T07:58:58.130Z,4740.00
2018-07-08T07:59:58.103Z,4636.00
2018-07-08T08:00:58.106Z,4448.00
2018-07-08T08:01:58.110Z,4488.00
2018-07-08T08:02:58.111Z,4852.00
2018-07-08T08:03:58.115Z,5280.00
2018-07-08T08:04:58.118Z,24544.00
2018-07-08T08:05:58.120Z,21184.00
2018-07-08T08:06:58.123Z,7960.00
2018-07-08T08:07:58.127Z,4980.00
2018-07-08T08:08:58.132Z,4228.00
2018-07-08T08:09:58.133Z,4212.00
2018-07-08T08:10:58.137Z,4984.00
2018-07-08T08:11:58.141Z,49856.00
2018-07-08T08:12:58.145Z,50048.00
2018-07-08T08:13:58.212Z,10676.00
2018-07-08T08:14:58.153Z,6660.00
2018-07-08T08:15:58.157Z,5316.00
2018-07-08T08:16:58.161Z,4680.00
2018-07-08T08:17:58.165Z,4176.00
2018-07-08T08:18:58.173Z,3764.00
2018-07-08T08:19:58.178Z,3612.00
2018-07-08T08:20:58.225Z,3600.00
2018-07-08T08:21:58.182Z,3624.00
2018-07-08T08:22:58.186Z,3632.00
2018-07-08T08:23:58.195Z,3704.00
2018-07-08T08:24:58.195Z,3884.00
2018-07-08T08:25:58.197Z,4088.00
2018-07-08T08:26:58.201Z,4780.00
2018-07-08T08:27:58.205Z,6232.00
2018-07-08T08:28:58.209Z,9152.00
2018-07-08T08:29:58.212Z,5896.00
2018-07-08T08:30:58.216Z,5064.00
2018-07-08T08:31:59.086Z,5024.00
2018-07-08T08:32:58.224Z,5728.00
2018-07-08T08:33:58.227Z,5564.00
2018-07-08T08:34:58.230Z,5496.00
2018-07-08T08:35:58.234Z,5252.00
2018-07-08T08:36:58.238Z,5852.00
2018-07-08T08:37:58.240Z,7456.00
2018-07-08T08:38:58.259Z,9204.00
2018-07-08T08:39:58.249Z,8056.00
2018-07-08T08:40:58.549Z,7352.00
2018-07-08T08:41:58.257Z,7448.00
2018-07-08T08:42:58.610Z,9060.00
2018-07-08T08:43:58.263Z,43520.00
2018-07-08T08:44:58.269Z,22144.00
2018-07-08T08:45:58.324Z,11200.00
2018-07-08T08:46:58.278Z,51520.00
2018-07-08T08:47:58.281Z,50880.00
2018-07-08T08:48:58.349Z,48160.00
2018-07-08T08:49:58.295Z,48864.00
2018-07-08T08:50:58.295Z,43744.00
2018-07-08T08:51:58.303Z,45504.00
2018-07-08T08:52:58.312Z,47680.00
2018-07-08T08:53:58.617Z,45728.00
2018-07-08T08:54:58.324Z,41216.00
2018-07-08T08:55:58.332Z,22432.00
2018-07-08T08:56:58.340Z,15680.00
2018-07-08T08:57:58.494Z,48032.00
2018-07-08T08:58:58.747Z,48576.00
2018-07-08T08:59:58.365Z,50656.00
2018-07-08T09:00:58.374Z,48640.00
2018-07-08T09:01:58.820Z,51872.00
2018-07-08T09:02:58.392Z,50016.00
2018-07-08T09:03:58.551Z,48384.00
2018-07-08T09:04:58.654Z,49504.00
2018-07-08T09:05:58.420Z,40064.00
2018-07-08T09:06:58.455Z,50784.00
2018-07-08T09:07:58.442Z,53664.00
2018-07-08T09:08:58.452Z,12432.00
2018-07-08T09:09:58.465Z,9132.00
2018-07-08T09:10:58.563Z,7724.00
2018-07-08T09:11:58.483Z,6412.00
2018-07-08T09:12:58.497Z,5500.00
2018-07-08T09:13:58.675Z,5540.00
2018-07-08T09:14:58.828Z,6792.00
2018-07-08T09:15:58.927Z,8180.00
2018-07-08T09:16:58.788Z,9764.00
2018-07-08T09:17:58.765Z,8324.00
2018-07-08T09:18:58.841Z,8012.00
2018-07-08T09:19:58.770Z,10060.00
2018-07-08T09:20:59.004Z,10324.00
2018-07-08T09:21:58.805Z,8640.00
2018-07-08T09:22:58.572Z,7776.00
2018-07-08T09:23:58.622Z,13000.00
2018-07-08T09:24:58.588Z,9828.00
2018-07-08T09:25:58.593Z,15132.00
2018-07-08T09:26:58.828Z,7580.00
2018-07-08T09:27:58.990Z,8380.00
2018-07-08T09:28:58.912Z,6832.00
2018-07-08T09:29:58.620Z,6280.00
2018-07-08T09:30:58.628Z,5968.00
2018-07-08T09:31:58.938Z,5756.00
2018-07-08T09:32:58.971Z,5652.00
2018-07-08T09:33:58.965Z,5552.00
2018-07-08T09:34:58.958Z,5536.00
2018-07-08T09:35:58.659Z,5536.00
2018-07-08T09:36:58.677Z,6036.00
2018-07-08T09:37:58.951Z,7292.00
2018-07-08T09:38:58.862Z,16224.00
2018-07-08T09:39:58.683Z,30624.00
2018-07-08T09:40:58.691Z,26432.00
2018-07-08T09:41:58.696Z,16928.00
2018-07-08T09:42:58.704Z,20256.00
2018-07-08T09:43:58.711Z,35424.00
2018-07-08T09:44:58.717Z,35936.00
2018-07-08T09:45:58.740Z,34464.00
2018-07-08T09:46:58.731Z,32288.00
2018-07-08T09:47:59.032Z,30144.00
2018-07-08T09:48:58.753Z,31712.00
2018-07-08T09:49:58.757Z,31872.00
2018-07-08T09:50:58.767Z,33056.00
2018-07-08T09:51:58.777Z,28864.00
2018-07-08T09:52:58.787Z,10008.00
2018-07-08T09:53:58.796Z,31712.00
2018-07-08T09:54:58.804Z,31616.00
2018-07-08T09:55:58.816Z,31616.00
2018-07-08T09:56:58.827Z,6956.00
2018-07-08T09:57:58.848Z,5740.00
2018-07-08T09:58:58.846Z,5016.00
2018-07-08T09:59:58.859Z,4152.00
2018-07-08T10:00:58.865Z,3300.00
2018-07-08T10:01:58.875Z,2744.00
2018-07-08T10:02:58.884Z,2408.00
2018-07-08T10:03:58.892Z,2168.00
2018-07-08T10:04:58.911Z,2052.00
2018-07-08T10:05:58.908Z,2088.00
2018-07-08T10:06:58.917Z,2152.00
2018-07-08T10:07:58.925Z,2328.00
2018-07-08T10:08:58.933Z,2820.00
2018-07-08T10:09:58.942Z,3008.00
2018-07-08T10:10:59.005Z,3208.00
2018-07-08T10:11:58.953Z,3648.00
2018-07-08T10:12:58.960Z,4164.00
2018-07-08T10:13:59.032Z,4744.00
2018-07-08T10:14:58.974Z,5336.00
2018-07-08T10:15:58.980Z,6064.00
2018-07-08T10:16:58.987Z,9624.00
2018-07-08T10:17:58.995Z,18720.00
2018-07-08T10:18:59.000Z,19200.00
2018-07-08T10:19:59.057Z,18688.00
2018-07-08T10:20:59.014Z,13232.00
2018-07-08T10:21:59.020Z,5936.00
2018-07-08T10:22:59.029Z,6712.00
2018-07-08T10:23:59.035Z,5440.00
2018-07-08T10:24:59.044Z,5120.00
2018-07-08T10:25:59.049Z,8768.00
2018-07-08T10:26:59.057Z,9296.00
2018-07-08T10:27:59.065Z,18048.00
2018-07-08T10:28:59.073Z,16992.00
2018-07-08T10:29:59.079Z,17632.00
2018-07-08T10:30:59.089Z,14176.00
2018-07-08T10:31:59.096Z,11832.00
2018-07-08T10:32:59.108Z,10212.00
2018-07-08T10:33:59.617Z,7584.00
2018-07-08T10:34:59.121Z,7508.00
2018-07-08T10:35:59.130Z,7816.00
2018-07-08T10:36:59.143Z,6432.00
2018-07-08T10:37:59.147Z,6644.00
2018-07-08T10:38:59.156Z,8808.00
2018-07-08T10:39:59.164Z,9256.00
2018-07-08T10:40:59.174Z,8796.00
2018-07-08T10:41:59.181Z,7580.00
2018-07-08T10:42:59.190Z,7116.00
2018-07-08T10:43:59.198Z,7704.00
2018-07-08T10:44:59.208Z,7988.00
2018-07-08T10:45:59.214Z,6276.00
2018-07-08T10:46:59.225Z,6456.00
2018-07-08T10:47:59.231Z,8496.00
2018-07-08T10:48:59.240Z,10588.00
2018-07-08T10:49:59.294Z,11112.00
2018-07-08T10:50:59.257Z,7944.00
2018-07-08T10:51:59.265Z,7516.00
2018-07-08T10:52:59.275Z,10460.00
2018-07-08T10:53:59.287Z,10160.00
2018-07-08T10:54:59.290Z,6028.00
2018-07-08T10:55:59.300Z,5744.00
2018-07-08T10:56:59.310Z,6388.00
2018-07-08T10:57:59.318Z,6756.00
2018-07-08T10:58:59.326Z,5772.00
2018-07-08T10:59:59.335Z,5092.00
2018-07-08T11:00:59.343Z,4852.00
2018-07-08T11:01:59.352Z,4932.00
2018-07-08T11:02:59.359Z,4980.00
2018-07-08T11:03:59.367Z,4876.00
2018-07-08T11:04:59.375Z,4360.00
2018-07-08T11:05:59.382Z,3792.00
2018-07-08T11:06:59.394Z,3512.00
2018-07-08T11:07:59.397Z,3332.00
2018-07-08T11:08:59.404Z,3092.00
2018-07-08T11:09:59.409Z,2896.00
2018-07-08T11:10:59.418Z,2688.00
2018-07-08T11:11:59.426Z,2500.00
2018-07-08T11:12:59.433Z,2500.00
2018-07-08T11:13:59.439Z,2804.00
2018-07-08T11:14:59.450Z,2996.00
2018-07-08T11:15:59.453Z,2924.00
2018-07-08T11:16:59.459Z,2840.00
2018-07-08T11:17:59.463Z,2936.00
2018-07-08T11:18:59.471Z,3032.00
2018-07-08T11:19:59.476Z,3220.00
2018-07-08T11:20:59.521Z,3412.00
2018-07-08T11:21:59.488Z,3652.00
2018-07-08T11:22:59.495Z,4028.00
2018-07-08T11:23:59.501Z,4300.00
2018-07-08T11:24:59.508Z,4596.00
2018-07-08T11:25:59.513Z,5936.00
2018-07-08T11:26:59.519Z,6884.00
2018-07-08T11:27:59.525Z,7676.00
2018-07-08T11:28:59.530Z,10284.00
2018-07-08T11:29:59.540Z,10468.00
2018-07-08T11:30:59.542Z,8840.00
2018-07-08T11:31:59.549Z,11704.00
2018-07-08T11:32:59.554Z,11860.00
2018-07-08T11:33:59.561Z,11588.00
2018-07-08T11:34:59.569Z,9980.00
2018-07-08T11:35:59.575Z,9716.00
2018-07-08T11:36:59.586Z,8352.00
2018-07-08T11:37:59.591Z,11056.00
2018-07-08T11:38:59.600Z,12028.00
2018-07-08T11:39:59.607Z,12036.00
2018-07-08T11:40:59.616Z,9988.00
2018-07-08T11:41:59.623Z,9804.00
2018-07-08T11:42:59.717Z,7784.00
2018-07-08T11:43:59.639Z,6156.00
2018-07-08T11:44:59.648Z,5784.00
2018-07-08T11:45:59.655Z,5416.00
2018-07-08T11:46:59.664Z,5008.00
2018-07-08T11:47:59.675Z,4548.00
2018-07-08T11:48:59.680Z,4132.00
2018-07-08T11:49:59.768Z,4100.00
2018-07-08T11:50:59.695Z,4248.00
2018-07-08T11:51:59.704Z,4460.00
2018-07-08T11:52:59.715Z,4548.00
2018-07-08T11:53:59.715Z,4356.00
2018-07-08T11:54:59.724Z,4596.00
2018-07-08T11:55:59.732Z,5088.00
2018-07-08T11:56:59.739Z,4920.00
2018-07-08T11:57:59.746Z,4556.00
2018-07-08T11:58:59.752Z,4188.00
2018-07-08T11:59:59.761Z,4096.00
2018-07-08T12:01:00.106Z,4244.00
2018-07-08T12:02:00.116Z,7104.00
2018-07-08T12:03:00.065Z,5028.00
2018-07-08T12:04:00.211Z,4884.00
2018-07-08T12:05:00.217Z,4144.00
2018-07-08T12:05:59.973Z,3496.00
2018-07-08T12:06:59.806Z,3124.00
2018-07-08T12:08:00.103Z,2688.00
2018-07-08T12:08:59.875Z,2240.00
2018-07-08T12:09:59.824Z,1952.00
2018-07-08T12:10:59.835Z,1860.00
2018-07-08T12:11:59.838Z,1872.00
2018-07-08T12:12:59.844Z,2092.00
2018-07-08T12:13:59.850Z,2224.00
2018-07-08T12:14:59.856Z,2164.00
2018-07-08T12:15:59.862Z,2116.00
2018-07-08T12:16:59.869Z,1972.00
2018-07-08T12:17:59.873Z,1620.00
2018-07-08T12:18:59.880Z,1380.00
2018-07-08T12:19:59.886Z,1280.00
2018-07-08T12:20:59.893Z,1260.00
2018-07-08T12:21:59.895Z,1320.00
2018-07-08T12:22:59.902Z,1556.00
2018-07-08T12:23:59.907Z,1912.00
2018-07-08T12:24:59.912Z,2340.00
2018-07-08T12:25:59.917Z,2656.00